logo dgac
Viernes 01 de Julio del 2022
Buscar por aerodromo o helipuerto
Ingrese nombre de aeródromo, localidad o designador OACI:

Aeródromo: Viña del Mar (PUB) (SCVM)

Ubicación: Viña del Mar, V Región, Chile (32º 56' 59'' S, 71º 28' 43'' W) Ver ubicación en el mapa

Pistas

Orientación Dimensión Pendiente Superficie Resistencia APCH THR RWY PAPI
05/23 1750 x 30 0,60 ASPH PCN 30 F/B/X/T Sí (3.2º)
Horas de operación H24
Elevación 140 m / 461 ft
Otra Información Adm : Armada de Chile
Uso : PUB
TEL : Jefatura: +56 961752059 / TEL ARO: 224392746 - CEL +56 961750277
Ubicado a 15 km NE de Viña del Mar
email : aro.vina@dgac.gob.cl

Otra información ver AIP-Chile Volumen I AD 3.9-20.6-V
CCCM/FCCV Descargar
andera de Chile
Mapa de Viña del Mar (PUB) (SCVM)

Último METAR

METAR SCVM 011300Z 36006KT 3500 RA BKN008 OVC030 09/08 Q1018

Último TAF

TAF SCVM 011000Z 0112/0212 02008KT 9999 BKN015 TX11/0118Z TN07/0210Z TEMPO 0112/0116 7000 RA BKN012 OVC020 BECMG 0118/0120 30010KT 9999 SHRA BKN020 BECMG 0201/0203 14004KT 9999 NSW SCT020 BECMG 0206/0208 CAVOK

Últimas fotos cámaras

Imagen aerodromo Viña del Mar (PUB) (SCVM) S-Oeste tomada el 01-07-2022 01:12:30 Imagen aerodromo Viña del Mar (PUB) (SCVM) N-Este tomada el 01-07-2022 01:11:48

Último NOTAM

C2993/22 NOTAMR C2633/22 Q)SCEZ/QPAAU/I/NBO/A/000/999/3257S07129W005 A)SCVM B)2206302144 C)2208312359 E)STAR 2 LAVER 5 / STAR 4 SATOR 5, PACIL3 Y REVEN 3, NO AVBL DEBIDO A VOR/DME VDM U/S